»·PEaware :: N715WM KMHV-KSMX

N715WM :: KMHV-KSMX

FLIGHT INFORMATION

Flight Status: Arrived
Operator: Privately registered:
United States
More flights under this callsign
Pilot: Andres M. (43434)
Aircraft: CESSNA 172 SKYHAWK
(C172)
More flights by this aircraft type
Origin: KMHV Mojave
United States
Destination: KSMX Santa Maria Pub/Capt Hancock
United States
More flights between these airports :: More routes between these airports
Route:
File this flight plan on PilotEdge
Remarks:
Altitude:
(Current/Filed)
8,500ft
Speed:
(Current/Filed)
110kts
Departed: 27-Oct-23 06:49 PM
Arrived: 27-Oct-23 07:54 PM
Distance/Time
Traveled:
113nm/1:04
Distance/Time
To Go:
Arrived

Flight Plot

Page will automatically refresh every two minutes.

Flight plan parsing failed; only flown route is shown


Map Options




Map Legend


Flown Route
Filed Route
Departure Airport
Arrival Airport
Navaid (VOR, NDB)
Fix

Horizontal Profiles

Position Reports

Time Latitude Longitude Heading Altitude Ground
Speed
27-Oct-23 18:41 35.048211 -118.140590 87 2705ft 0kts
27-Oct-23 18:42 35.048211 -118.140590 87 2705ft 0kts
27-Oct-23 18:43 35.048211 -118.140590 87 2705ft 0kts
27-Oct-23 18:44 35.048086 -118.137277 134 2698ft 18kts
27-Oct-23 18:45 35.045040 -118.133646 137 2685ft 18kts
27-Oct-23 18:46 35.044207 -118.131902 55 2680ft 0kts
27-Oct-23 18:47 35.044207 -118.131902 55 2680ft 0kts
27-Oct-23 18:48 35.048893 -118.135279 323 2830ft 55kts
27-Oct-23 18:49 35.064614 -118.136702 342 3586ft 55kts
27-Oct-23 18:50 35.079672 -118.135087 349 4247ft 52kts
27-Oct-23 18:51 35.082463 -118.139877 193 4831ft 83kts
27-Oct-23 18:52 35.059465 -118.132099 162 5382ft 97kts
27-Oct-23 18:53 35.040671 -118.137970 284 5931ft 65kts
27-Oct-23 18:54 35.041027 -118.161044 281 6489ft 70kts
27-Oct-23 18:55 35.035492 -118.186072 252 7014ft 84kts
27-Oct-23 18:56 35.023854 -118.211576 252 7510ft 87kts
27-Oct-23 18:57 35.012395 -118.238427 252 7978ft 90kts
27-Oct-23 18:58 35.001094 -118.266379 252 8422ft 93kts
27-Oct-23 18:59 34.998959 -118.294209 306 8848ft 81kts
27-Oct-23 19:00 35.008991 -118.319386 306 9262ft 83kts
27-Oct-23 19:01 35.019198 -118.344989 305 9655ft 85kts
27-Oct-23 19:02 35.025996 -118.373661 286 10029ft 91kts
27-Oct-23 19:03 35.027646 -118.405100 278 10383ft 94kts
27-Oct-23 19:04 35.027089 -118.439491 273 10549ft 115kts
27-Oct-23 19:05 35.025222 -118.481777 271 10546ft 130kts
27-Oct-23 19:06 35.022789 -118.527870 271 10227ft 141kts
27-Oct-23 19:07 35.020095 -118.576506 271 9655ft 144kts
27-Oct-23 19:08 35.017349 -118.625278 271 9072ft 143kts
27-Oct-23 19:09 35.014607 -118.673664 271 8485ft 142kts
27-Oct-23 19:10 35.011887 -118.721286 271 7898ft 140kts
27-Oct-23 19:11 35.009187 -118.768324 271 7311ft 138kts
27-Oct-23 19:12 35.006514 -118.814629 271 6725ft 136kts
27-Oct-23 19:13 35.003898 -118.859066 271 6536ft 124kts
27-Oct-23 19:14 35.001466 -118.900878 270 6528ft 124kts
27-Oct-23 19:15 34.999183 -118.937803 270 7151ft 90kts
27-Oct-23 19:16 34.997337 -118.968723 269 7722ft 92kts
27-Oct-23 19:17 34.995462 -119.000278 267 8255ft 94kts
27-Oct-23 19:18 34.993439 -119.034763 266 8498ft 120kts
27-Oct-23 19:19 34.990966 -119.076897 266 8491ft 125kts
27-Oct-23 19:20 34.988414 -119.119412 266 8491ft 126kts
27-Oct-23 19:21 34.985822 -119.162140 266 8491ft 126kts
27-Oct-23 19:22 34.983220 -119.204752 266 8491ft 126kts
27-Oct-23 19:23 34.980590 -119.247549 266 8491ft 126kts
27-Oct-23 19:24 34.977951 -119.290265 266 8491ft 126kts
27-Oct-23 19:25 34.975284 -119.333233 266 8485ft 127kts
27-Oct-23 19:26 34.972601 -119.376178 266 8478ft 127kts
27-Oct-23 19:27 34.969889 -119.419336 265 8471ft 127kts
27-Oct-23 19:28 34.967156 -119.462573 265 8464ft 128kts
27-Oct-23 19:29 34.964402 -119.505897 264 8456ft 128kts
27-Oct-23 19:30 34.961733 -119.548708 261 8452ft 124kts
27-Oct-23 19:31 34.959011 -119.590273 261 8454ft 122kts
27-Oct-23 19:32 34.956237 -119.631960 268 8470ft 125kts
27-Oct-23 19:33 34.953513 -119.674362 268 8472ft 125kts
27-Oct-23 19:34 34.950869 -119.716596 260 8474ft 123kts
27-Oct-23 19:35 34.948074 -119.757960 260 8479ft 122kts
27-Oct-23 19:36 34.945312 -119.799509 260 8480ft 123kts
27-Oct-23 19:37 34.942538 -119.841254 260 8480ft 123kts
27-Oct-23 19:38 34.939722 -119.883345 261 8349ft 132kts
27-Oct-23 19:39 34.936729 -119.928674 261 7644ft 135kts
27-Oct-23 19:40 34.933675 -119.973992 261 6936ft 134kts
27-Oct-23 19:41 34.930622 -120.019003 261 6217ft 133kts
27-Oct-23 19:42 34.927575 -120.063752 261 5407ft 131kts
27-Oct-23 19:43 34.924584 -120.107349 261 4600ft 128kts
27-Oct-23 19:44 34.921876 -120.146591 261 4490ft 109kts
27-Oct-23 19:45 34.919241 -120.183021 270 4496ft 107kts
27-Oct-23 19:46 34.916793 -120.221672 268 4184ft 123kts
27-Oct-23 19:47 34.902960 -120.261332 248 3686ft 129kts
27-Oct-23 19:48 34.887569 -120.301889 254 2983ft 131kts
27-Oct-23 19:49 34.875775 -120.343082 254 2498ft 119kts
27-Oct-23 19:50 34.870678 -120.382897 277 2042ft 122kts
27-Oct-23 19:52 34.876322 -120.422312 287 1336ft 101kts
27-Oct-23 19:53 34.888097 -120.439761 311 635ft 57kts
27-Oct-23 19:54 34.896151 -120.449785 332 265ft 20kts
27-Oct-23 19:55 34.900859 -120.450275 2 265ft 21kts
27-Oct-23 19:56 34.901021 -120.450268 2 265ft 0kts
27-Oct-23 19:57 34.901021 -120.450268 2 265ft 0kts

Navigation Log

Ident Type
Flight plan parsing failed, navigation log unavailable